createdAt,value
2018-08-09T00:01:11.735Z,9.53
2018-08-09T00:03:45.202Z,7.25
2018-08-09T00:06:18.589Z,8.90
2018-08-09T00:08:52.009Z,7.67
2018-08-09T00:11:25.411Z,7.20
2018-08-09T00:13:58.816Z,7.15
2018-08-09T00:16:32.198Z,7.28
2018-08-09T00:19:05.632Z,9.43
2018-08-09T00:21:39.027Z,8.60
2018-08-09T00:24:12.439Z,7.58
2018-08-09T00:26:45.837Z,7.90
2018-08-09T00:29:19.252Z,7.42
2018-08-09T00:31:52.623Z,8.48
2018-08-09T00:34:26.020Z,8.05
2018-08-09T00:36:59.403Z,7.35
2018-08-09T00:39:32.848Z,7.92
2018-08-09T00:42:06.510Z,9.05
2018-08-09T00:44:39.928Z,7.80
2018-08-09T00:47:13.340Z,8.18
2018-08-09T00:49:46.959Z,8.18
2018-08-09T00:52:20.392Z,9.20
2018-08-09T00:54:53.799Z,7.92
2018-08-09T00:57:27.242Z,7.90
2018-08-09T01:00:00.678Z,8.38
2018-08-09T01:02:34.135Z,8.70
2018-08-09T01:05:07.571Z,8.38
2018-08-09T01:07:40.946Z,8.90
2018-08-09T01:10:14.367Z,8.08
2018-08-09T01:12:47.785Z,10.05
2018-08-09T01:15:21.186Z,9.05
2018-08-09T01:17:54.667Z,8.45
2018-08-09T01:20:28.055Z,8.28
2018-08-09T01:23:01.450Z,8.68
2018-08-09T01:25:34.875Z,9.95
2018-08-09T01:28:08.265Z,8.25
2018-08-09T01:30:41.693Z,8.73
2018-08-09T01:33:15.088Z,9.98
2018-08-09T01:35:48.473Z,9.03
2018-08-09T01:38:21.878Z,8.93
2018-08-09T01:40:55.284Z,8.25
2018-08-09T01:43:39.895Z,8.43
2018-08-09T01:46:13.285Z,8.90
2018-08-09T01:48:46.650Z,8.85
2018-08-09T01:51:20.111Z,10.70
2018-08-09T01:53:53.903Z,8.35
2018-08-09T01:56:27.303Z,8.88
2018-08-09T01:59:00.718Z,8.65
2018-08-09T02:01:34.171Z,9.23
2018-08-09T02:04:07.585Z,8.45
2018-08-09T02:06:40.982Z,9.38
2018-08-09T02:09:18.507Z,8.90
2018-08-09T02:11:51.921Z,8.80
2018-08-09T02:14:25.291Z,8.50
2018-08-09T02:16:58.878Z,7.80
2018-08-09T02:19:32.270Z,8.68
2018-08-09T02:22:05.716Z,8.48
2018-08-09T02:24:39.207Z,9.05
2018-08-09T02:27:12.631Z,9.08
2018-08-09T02:29:46.015Z,8.78
2018-08-09T02:32:19.423Z,8.55
2018-08-09T02:34:52.799Z,9.35
2018-08-09T02:37:26.251Z,9.18
2018-08-09T02:39:59.629Z,9.75
2018-08-09T02:42:33.040Z,9.95
2018-08-09T02:45:06.499Z,8.85
2018-08-09T02:47:39.927Z,8.73
2018-08-09T02:50:13.356Z,9.08
2018-08-09T02:52:46.757Z,9.35
2018-08-09T02:55:20.163Z,9.35
2018-08-09T02:57:53.547Z,9.20
2018-08-09T03:00:27.007Z,9.28
2018-08-09T03:03:00.396Z,9.38
2018-08-09T03:05:33.807Z,11.03
2018-08-09T03:08:07.240Z,8.33
2018-08-09T03:10:40.634Z,9.18
2018-08-09T03:13:14.094Z,9.90
2018-08-09T03:15:47.477Z,9.28
2018-08-09T03:18:20.850Z,8.70
2018-08-09T03:20:54.246Z,9.68
2018-08-09T03:23:27.653Z,9.15
2018-08-09T03:26:01.061Z,9.50
2018-08-09T03:28:34.828Z,8.85
2018-08-09T03:31:08.272Z,9.75
2018-08-09T03:33:41.642Z,9.05
2018-08-09T03:36:15.058Z,9.15
2018-08-09T03:38:48.456Z,9.38
2018-08-09T03:41:21.859Z,8.58
2018-08-09T03:43:55.296Z,8.85
2018-08-09T03:46:28.713Z,8.78
2018-08-09T03:49:02.130Z,11.25
2018-08-09T03:51:35.910Z,9.00
2018-08-09T03:54:09.311Z,8.55
2018-08-09T03:56:42.714Z,8.58
2018-08-09T03:59:16.098Z,8.45
2018-08-09T04:01:54.705Z,7.33
2018-08-09T04:04:28.199Z,7.90
2018-08-09T04:07:01.603Z,7.42
2018-08-09T04:09:34.997Z,8.13
2018-08-09T04:12:08.426Z,7.92
2018-08-09T04:14:41.806Z,8.45
2018-08-09T04:17:21.340Z,8.58
2018-08-09T04:19:54.714Z,8.33
2018-08-09T04:22:28.112Z,8.80
2018-08-09T04:25:01.473Z,9.30
2018-08-09T04:27:34.856Z,8.68
2018-08-09T04:30:08.299Z,8.88
2018-08-09T04:32:41.671Z,8.33
2018-08-09T04:35:15.097Z,8.53
2018-08-09T04:37:48.488Z,8.18
2018-08-09T04:40:21.871Z,8.00
2018-08-09T04:42:55.261Z,8.55
2018-08-09T04:45:28.655Z,8.80
2018-08-09T04:48:02.044Z,9.38
2018-08-09T04:50:35.704Z,9.78
2018-08-09T04:53:09.100Z,8.95
2018-08-09T04:55:42.470Z,8.58
2018-08-09T04:58:15.880Z,9.33
2018-08-09T05:00:49.291Z,11.65
2018-08-09T05:03:22.671Z,9.00
2018-08-09T05:05:56.047Z,8.25
2018-08-09T05:08:29.456Z,8.65
2018-08-09T05:11:02.863Z,8.38
2018-08-09T05:13:36.271Z,10.23
2018-08-09T05:16:09.706Z,10.95
2018-08-09T05:18:43.107Z,11.70
2018-08-09T05:21:16.512Z,11.53
2018-08-09T05:23:49.918Z,10.15
2018-08-09T05:26:23.326Z,8.83
2018-08-09T05:28:56.767Z,9.63
2018-08-09T05:31:30.175Z,9.30
2018-08-09T05:34:03.716Z,9.53
2018-08-09T05:36:37.089Z,10.03
2018-08-09T05:39:11.672Z,10.05
2018-08-09T05:41:45.059Z,8.45
2018-08-09T05:44:18.458Z,9.53
2018-08-09T05:46:51.846Z,9.28
2018-08-09T05:49:25.230Z,8.80
2018-08-09T05:51:58.656Z,8.75
2018-08-09T05:54:32.071Z,8.58
2018-08-09T05:57:05.654Z,9.35
2018-08-09T05:59:39.099Z,10.58
2018-08-09T06:02:12.491Z,8.95
2018-08-09T06:04:45.881Z,10.20
2018-08-09T06:07:19.323Z,8.78
2018-08-09T06:09:52.702Z,9.05
2018-08-09T06:12:26.109Z,8.85
2018-08-09T06:14:59.538Z,7.45
2018-08-09T06:17:32.963Z,8.05
2018-08-09T06:20:06.479Z,7.30
2018-08-09T06:22:39.887Z,8.48
2018-08-09T06:25:13.296Z,7.22
2018-08-09T06:27:46.737Z,8.18
2018-08-09T06:30:20.159Z,8.05
2018-08-09T06:32:53.568Z,6.70
2018-08-09T06:35:26.934Z,6.87
2018-08-09T06:38:00.379Z,7.35
2018-08-09T06:40:33.802Z,7.47
2018-08-09T06:43:07.239Z,5.87
2018-08-09T06:45:40.636Z,5.72
2018-08-09T06:48:14.081Z,5.37
2018-08-09T06:50:47.472Z,5.70
2018-08-09T06:53:20.885Z,5.87
2018-08-09T06:55:54.262Z,5.83
2018-08-09T06:58:27.698Z,5.17
2018-08-09T07:01:01.132Z,5.78
2018-08-09T07:03:34.540Z,6.58
2018-08-09T07:06:07.920Z,5.80
2018-08-09T07:08:41.296Z,6.37
2018-08-09T07:11:14.683Z,5.92
2018-08-09T07:13:48.084Z,6.42
2018-08-09T07:16:21.450Z,5.85
2018-08-09T07:18:54.846Z,6.55
2018-08-09T07:21:28.264Z,5.72
2018-08-09T07:24:01.771Z,5.30
2018-08-09T07:26:35.219Z,6.28
2018-08-09T07:29:08.725Z,5.15
2018-08-09T07:31:42.126Z,6.10
2018-08-09T07:34:15.515Z,5.80
2018-08-09T07:36:48.937Z,6.12
2018-08-09T07:39:22.376Z,5.30
2018-08-09T07:41:55.744Z,6.55
2018-08-09T07:44:29.198Z,5.95
2018-08-09T07:47:02.605Z,4.70
2018-08-09T07:49:36.009Z,5.95
2018-08-09T07:52:09.428Z,5.97
2018-08-09T07:54:42.861Z,5.08
2018-08-09T07:57:16.227Z,6.78
2018-08-09T07:59:49.660Z,4.83
2018-08-09T08:02:23.056Z,5.05
2018-08-09T08:04:56.498Z,5.60
2018-08-09T08:07:29.938Z,6.00
2018-08-09T08:10:03.411Z,5.95
2018-08-09T08:12:36.822Z,6.35
2018-08-09T08:15:11.391Z,6.53
2018-08-09T08:17:44.717Z,5.80
2018-08-09T08:20:18.168Z,5.53
2018-08-09T08:22:51.538Z,5.60
2018-08-09T08:25:24.994Z,5.35
2018-08-09T08:27:58.355Z,5.55
2018-08-09T08:30:31.802Z,5.20
2018-08-09T08:33:06.061Z,5.83
2018-08-09T08:35:39.487Z,4.22
2018-08-09T08:38:12.875Z,5.95
2018-08-09T08:40:46.304Z,6.40
2018-08-09T08:43:19.687Z,4.83
2018-08-09T08:45:53.124Z,5.10
2018-08-09T08:48:26.534Z,5.45
2018-08-09T08:50:59.935Z,6.85
2018-08-09T08:53:33.330Z,6.45
2018-08-09T08:56:06.787Z,6.80
2018-08-09T08:58:40.224Z,5.35
2018-08-09T09:01:13.682Z,4.97
2018-08-09T09:03:47.100Z,5.60
2018-08-09T09:06:20.527Z,4.75
2018-08-09T09:08:53.907Z,5.08
2018-08-09T09:11:27.304Z,5.25
2018-08-09T09:14:00.711Z,5.95
2018-08-09T09:16:34.134Z,6.05
2018-08-09T09:19:08.059Z,5.08
2018-08-09T09:21:41.455Z,5.37
2018-08-09T09:24:14.860Z,5.25
2018-08-09T09:29:21.662Z,4.92
2018-08-09T09:31:55.103Z,4.35
2018-08-09T09:34:28.601Z,4.53
2018-08-09T09:37:01.989Z,4.25
2018-08-09T09:39:35.420Z,4.75
2018-08-09T09:42:08.855Z,4.30
2018-08-09T09:44:42.266Z,5.17
2018-08-09T09:47:15.662Z,4.10
2018-08-09T09:49:49.057Z,4.05
2018-08-09T09:52:22.831Z,4.90
2018-08-09T09:54:56.254Z,4.62
2018-08-09T09:57:29.628Z,4.17
2018-08-09T10:00:03.094Z,5.17
2018-08-09T10:02:36.486Z,4.53
2018-08-09T10:05:10.072Z,4.87
2018-08-09T10:07:43.426Z,5.08
2018-08-09T10:10:16.866Z,4.70
2018-08-09T10:12:50.281Z,5.12
2018-08-09T10:15:23.700Z,5.12
2018-08-09T10:17:57.099Z,5.03
2018-08-09T10:20:30.493Z,4.80
2018-08-09T10:23:03.894Z,5.10
2018-08-09T10:25:37.293Z,4.30
2018-08-09T10:28:10.685Z,4.83
2018-08-09T10:30:44.101Z,4.45
2018-08-09T10:33:17.511Z,5.12
2018-08-09T10:35:50.907Z,4.30
2018-08-09T10:38:24.279Z,5.30
2018-08-09T10:40:57.694Z,5.17
2018-08-09T10:43:31.062Z,5.12
2018-08-09T10:46:04.462Z,4.83
2018-08-09T10:48:38.687Z,4.62
2018-08-09T10:51:12.078Z,4.53
2018-08-09T10:53:45.444Z,3.95
2018-08-09T10:56:18.962Z,5.17
2018-08-09T10:58:52.428Z,5.30
2018-08-09T11:01:25.862Z,4.45
2018-08-09T11:03:59.291Z,4.85
2018-08-09T11:06:32.687Z,4.65
2018-08-09T11:09:08.618Z,4.70
2018-08-09T11:11:42.007Z,5.25
2018-08-09T11:14:15.358Z,5.00
2018-08-09T11:16:48.846Z,4.90
2018-08-09T11:19:22.226Z,5.30
2018-08-09T11:21:55.664Z,4.62
2018-08-09T11:24:29.034Z,4.62
2018-08-09T11:27:02.437Z,5.75
2018-08-09T11:29:35.824Z,5.72
2018-08-09T11:32:09.218Z,5.40
2018-08-09T11:34:42.586Z,5.10
2018-08-09T11:37:15.988Z,5.10
2018-08-09T11:39:49.418Z,4.90
2018-08-09T11:42:22.807Z,5.42
2018-08-09T11:44:56.174Z,4.45
2018-08-09T11:47:29.619Z,5.28
2018-08-09T11:50:03.002Z,5.20
2018-08-09T11:52:36.395Z,5.25
2018-08-09T11:55:09.813Z,5.20
2018-08-09T11:57:43.195Z,5.37
2018-08-09T12:00:16.619Z,4.90
2018-08-09T12:02:50.058Z,5.05
2018-08-09T12:05:23.462Z,5.67
2018-08-09T12:07:56.866Z,5.25
2018-08-09T12:10:30.449Z,5.65
2018-08-09T12:13:03.905Z,5.53
2018-08-09T12:15:37.348Z,5.80
2018-08-09T12:18:10.784Z,5.03
2018-08-09T12:20:44.224Z,4.87
2018-08-09T12:23:17.643Z,6.15
2018-08-09T12:25:51.054Z,5.37
2018-08-09T12:28:24.542Z,5.30
2018-08-09T12:30:57.954Z,5.92
2018-08-09T12:33:31.458Z,5.28
2018-08-09T12:36:05.274Z,5.08
2018-08-09T12:38:38.699Z,5.50
2018-08-09T12:41:12.074Z,5.67
2018-08-09T12:43:45.583Z,5.78
2018-08-09T12:46:18.980Z,5.28
2018-08-09T12:48:52.467Z,5.35
2018-08-09T12:51:25.930Z,5.47
2018-08-09T12:53:59.982Z,5.10
2018-08-09T12:56:33.526Z,5.62
2018-08-09T12:59:06.978Z,5.10
2018-08-09T13:01:40.420Z,5.12
2018-08-09T13:04:13.887Z,5.67
2018-08-09T13:06:47.334Z,5.22
2018-08-09T13:09:20.752Z,5.15
2018-08-09T13:11:54.177Z,5.78
2018-08-09T13:14:27.604Z,5.53
2018-08-09T13:17:01.128Z,5.97
2018-08-09T13:19:34.520Z,5.75
2018-08-09T13:22:08.231Z,5.40
2018-08-09T13:24:41.623Z,5.25
2018-08-09T13:27:15.451Z,5.75
2018-08-09T13:29:55.543Z,5.85
2018-08-09T13:32:29.136Z,4.95
2018-08-09T13:35:02.575Z,5.45
2018-08-09T13:37:36.019Z,5.67
2018-08-09T13:40:10.232Z,5.78
2018-08-09T13:42:43.661Z,5.70
2018-08-09T13:45:17.257Z,5.62
2018-08-09T13:47:50.730Z,5.50
2018-08-09T13:50:24.207Z,5.83
2018-08-09T13:52:57.639Z,5.70
2018-08-09T13:55:31.037Z,6.20
2018-08-09T13:58:04.600Z,5.90
2018-08-09T14:00:38.043Z,5.80
2018-08-09T14:03:11.467Z,6.08
2018-08-09T14:05:44.886Z,6.00
2018-08-09T14:08:18.330Z,5.92
2018-08-09T14:10:51.726Z,5.40
2018-08-09T14:13:25.156Z,5.37
2018-08-09T14:15:58.625Z,5.97
2018-08-09T14:18:32.044Z,5.83
2018-08-09T14:21:05.431Z,6.08
2018-08-09T14:23:38.830Z,6.15
2018-08-09T14:26:12.243Z,5.87
2018-08-09T14:28:45.691Z,5.85
2018-08-09T14:31:19.077Z,5.90
2018-08-09T14:33:52.746Z,6.10
2018-08-09T14:36:26.172Z,6.17
2018-08-09T14:38:59.725Z,5.55
2018-08-09T14:41:33.152Z,6.25
2018-08-09T14:44:07.030Z,6.00
2018-08-09T14:46:40.448Z,5.95
2018-08-09T14:49:13.877Z,6.15
2018-08-09T14:51:47.259Z,5.83
2018-08-09T14:54:20.666Z,5.92
2018-08-09T14:56:54.058Z,5.70
2018-08-09T14:59:27.527Z,5.47
2018-08-09T15:02:00.963Z,5.92
2018-08-09T15:04:34.388Z,5.75
2018-08-09T15:07:07.773Z,6.12
2018-08-09T15:09:41.216Z,5.85
2018-08-09T15:12:14.668Z,5.58
2018-08-09T15:14:48.092Z,5.83
2018-08-09T15:17:21.543Z,5.35
2018-08-09T15:19:54.951Z,5.87
2018-08-09T15:22:28.358Z,6.08
2018-08-09T15:25:01.796Z,5.95
2018-08-09T15:27:35.299Z,6.22
2018-08-09T15:30:14.565Z,6.08
2018-08-09T15:32:48.307Z,6.10
2018-08-09T15:35:21.761Z,5.60
2018-08-09T15:37:55.252Z,5.75
2018-08-09T15:40:28.627Z,5.40
2018-08-09T15:43:02.067Z,6.15
2018-08-09T15:45:35.473Z,6.40
2018-08-09T15:48:08.938Z,5.80
2018-08-09T15:50:42.378Z,5.75
2018-08-09T15:53:15.775Z,6.40
2018-08-09T15:55:49.271Z,5.87
2018-08-09T15:58:22.699Z,5.85
2018-08-09T16:00:56.160Z,6.15
2018-08-09T16:03:30.018Z,5.47
2018-08-09T16:06:03.423Z,6.35
2018-08-09T16:08:36.858Z,6.05
2018-08-09T16:11:10.303Z,6.00
2018-08-09T16:13:43.727Z,6.60
2018-08-09T16:16:17.154Z,6.33
2018-08-09T16:18:50.589Z,5.78
2018-08-09T16:21:23.982Z,5.95
2018-08-09T16:23:57.388Z,5.40
2018-08-09T16:26:30.783Z,5.78
2018-08-09T16:29:05.451Z,5.70
2018-08-09T16:31:38.885Z,5.80
2018-08-09T16:34:12.324Z,6.08
2018-08-09T16:36:45.714Z,6.65
2018-08-09T16:39:19.123Z,6.70
2018-08-09T16:41:52.513Z,7.28
2018-08-09T16:44:25.931Z,6.20
2018-08-09T16:46:59.316Z,6.35
2018-08-09T16:49:32.787Z,5.80
2018-08-09T16:52:06.184Z,9.10
2018-08-09T16:54:39.686Z,13.95
2018-08-09T16:57:13.096Z,18.32
2018-08-09T16:59:46.720Z,20.55
2018-08-09T17:02:20.147Z,13.30
2018-08-09T17:04:53.784Z,26.52
2018-08-09T17:07:27.244Z,14.63
2018-08-09T17:10:00.726Z,32.20
2018-08-09T17:12:36.575Z,36.60
2018-08-09T17:15:13.345Z,23.62
2018-08-09T17:17:46.816Z,102.87
2018-08-09T17:20:25.655Z,29.07
2018-08-09T17:22:59.857Z,65.97
2018-08-09T17:25:33.420Z,79.15
2018-08-09T17:28:06.853Z,62.03
2018-08-09T17:30:40.405Z,19.20
2018-08-09T17:33:13.844Z,70.80
2018-08-09T17:35:47.611Z,74.45
2018-08-09T17:38:21.069Z,47.67
2018-08-09T17:40:54.526Z,41.35
2018-08-09T17:46:25.340Z,75.83
2018-08-09T17:52:07.098Z,48.00
2018-08-09T17:57:48.858Z,32.08
2018-08-09T18:00:25.575Z,73.28
2018-08-09T18:02:59.917Z,61.40
2018-08-09T18:05:33.286Z,34.67
2018-08-09T18:08:07.367Z,103.78
2018-08-09T18:10:40.773Z,101.90
2018-08-09T18:13:14.116Z,25.32
2018-08-09T18:15:47.459Z,41.18
2018-08-09T18:18:21.042Z,31.02
2018-08-09T18:20:54.447Z,85.83
2018-08-09T18:23:29.958Z,32.85
2018-08-09T18:26:03.655Z,23.38
2018-08-09T18:28:37.080Z,21.25
2018-08-09T18:31:10.482Z,59.15
2018-08-09T18:33:44.029Z,66.47
2018-08-09T18:36:17.422Z,18.12
2018-08-09T18:38:50.913Z,38.00
2018-08-09T18:41:24.338Z,149.40
2018-08-09T18:43:59.944Z,173.40
2018-08-09T18:46:33.381Z,37.75
2018-08-09T18:49:06.946Z,66.25
2018-08-09T18:51:40.333Z,59.55
2018-08-09T18:54:17.703Z,54.05
2018-08-09T18:56:51.105Z,38.60
2018-08-09T18:59:24.574Z,65.55
2018-08-09T19:01:58.068Z,43.92
2018-08-09T19:04:31.428Z,66.28
2018-08-09T19:07:05.089Z,32.48
2018-08-09T19:09:38.590Z,19.32
2018-08-09T19:12:11.973Z,49.15
2018-08-09T19:14:45.464Z,41.40
2018-08-09T19:17:26.897Z,35.00
2018-08-09T19:20:01.454Z,26.05
2018-08-09T19:22:35.820Z,55.58
2018-08-09T19:25:09.935Z,24.65
2018-08-09T19:27:44.479Z,20.37
2018-08-09T19:30:19.525Z,20.92
2018-08-09T19:32:52.975Z,26.10
2018-08-09T19:35:26.365Z,23.52
2018-08-09T19:38:00.015Z,41.10
2018-08-09T19:40:34.367Z,16.20
2018-08-09T19:43:08.296Z,20.80
2018-08-09T19:45:41.662Z,28.60
2018-08-09T19:48:22.735Z,22.55
2018-08-09T19:50:56.126Z,25.00
2018-08-09T19:53:29.964Z,18.27
2018-08-09T19:56:04.289Z,26.40
2018-08-09T19:58:37.717Z,22.93
2018-08-09T20:01:11.129Z,26.33
2018-08-09T20:03:44.513Z,26.37
2018-08-09T20:06:17.954Z,25.52
2018-08-09T20:08:54.258Z,23.65
2018-08-09T20:11:27.714Z,23.85
2018-08-09T20:14:01.124Z,16.57
2018-08-09T20:16:34.685Z,26.90
2018-08-09T20:19:08.439Z,15.25
2018-08-09T20:21:45.072Z,25.37
2018-08-09T20:24:19.225Z,16.15
2018-08-09T20:26:52.699Z,20.82
2018-08-09T20:29:26.208Z,20.62
2018-08-09T20:32:00.053Z,25.45
2018-08-09T20:34:33.613Z,20.88
2018-08-09T20:37:07.091Z,28.62
2018-08-09T20:39:46.609Z,13.62
2018-08-09T20:42:20.184Z,15.50
2018-08-09T20:44:53.649Z,13.75
2018-08-09T20:47:26.997Z,13.15
2018-08-09T20:50:00.411Z,13.85
2018-08-09T20:52:33.826Z,15.10
2018-08-09T20:55:07.596Z,13.70
2018-08-09T20:57:41.951Z,16.70
2018-08-09T21:00:24.578Z,13.32
2018-08-09T21:02:59.127Z,19.92
2018-08-09T21:05:34.154Z,12.60
2018-08-09T21:08:07.921Z,15.60
2018-08-09T21:10:41.349Z,11.20
2018-08-09T21:13:14.723Z,12.70
2018-08-09T21:15:48.786Z,11.10
2018-08-09T21:18:22.265Z,12.15
2018-08-09T21:20:55.630Z,10.40
2018-08-09T21:23:29.106Z,17.27
2018-08-09T21:26:02.553Z,11.73
2018-08-09T21:28:36.020Z,12.20
2018-08-09T21:31:09.618Z,10.82
2018-08-09T21:33:43.066Z,13.48
2018-08-09T21:36:16.449Z,10.78
2018-08-09T21:38:49.879Z,12.82
2018-08-09T21:41:23.231Z,11.88
2018-08-09T21:43:56.657Z,12.23
2018-08-09T21:46:30.032Z,12.03
2018-08-09T21:49:03.585Z,9.55
2018-08-09T21:51:36.950Z,11.90
2018-08-09T21:54:10.450Z,9.93
2018-08-09T21:56:43.882Z,13.13
2018-08-09T21:59:17.411Z,11.35
2018-08-09T22:01:50.800Z,10.30
2018-08-09T22:04:24.182Z,19.15
2018-08-09T22:07:03.013Z,13.95
2018-08-09T22:09:41.576Z,11.93
2018-08-09T22:12:20.251Z,14.70
2018-08-09T22:14:58.812Z,10.20
2018-08-09T22:17:37.462Z,10.58
2018-08-09T22:20:16.076Z,10.88
2018-08-09T22:22:49.494Z,22.98
2018-08-09T22:25:22.862Z,14.73
2018-08-09T22:27:56.265Z,10.18
2018-08-09T22:30:29.660Z,10.28
2018-08-09T22:33:03.213Z,17.70
2018-08-09T22:35:36.777Z,20.80
2018-08-09T22:38:10.351Z,11.22
2018-08-09T22:40:43.995Z,21.50
2018-08-09T22:43:17.569Z,11.00
2018-08-09T22:45:51.175Z,8.78
2018-08-09T22:48:24.774Z,16.45
2018-08-09T22:50:58.253Z,10.40
2018-08-09T22:53:31.868Z,9.00
2018-08-09T22:56:05.254Z,12.28
2018-08-09T22:58:38.641Z,8.65
2018-08-09T23:01:12.048Z,15.20
2018-08-09T23:03:45.449Z,9.65
2018-08-09T23:06:18.872Z,10.40
2018-08-09T23:08:52.262Z,10.35
2018-08-09T23:11:25.706Z,9.05
2018-08-09T23:13:59.113Z,9.95
2018-08-09T23:16:32.491Z,10.85
2018-08-09T23:19:05.946Z,11.18
2018-08-09T23:21:39.347Z,7.92
2018-08-09T23:24:12.749Z,8.60
2018-08-09T23:26:46.122Z,8.45
2018-08-09T23:29:19.529Z,13.60
2018-08-09T23:31:52.986Z,7.67
2018-08-09T23:34:26.426Z,7.40
2018-08-09T23:36:59.844Z,12.33
2018-08-09T23:39:33.189Z,8.63
2018-08-09T23:42:06.807Z,10.10
2018-08-09T23:44:40.206Z,8.93
2018-08-09T23:47:13.589Z,8.05
2018-08-09T23:49:46.967Z,14.70
2018-08-09T23:52:20.426Z,9.68
2018-08-09T23:54:53.809Z,7.67
2018-08-09T23:57:27.797Z,9.13
